createdAt,value
2024-01-19T00:02:03.972Z,92473.03
2024-01-19T00:04:31.967Z,92488.22
2024-01-19T00:07:00.098Z,92484.22
2024-01-19T00:09:28.504Z,92490.50
2024-01-19T00:11:56.561Z,92483.09
2024-01-19T00:14:24.678Z,92474.59
2024-01-19T00:16:52.833Z,92477.72
2024-01-19T00:19:20.844Z,92478.81
2024-01-19T00:21:48.838Z,92482.53
2024-01-19T00:24:17.029Z,92488.91
2024-01-19T00:26:48.141Z,92486.16
2024-01-19T00:29:16.529Z,92494.16
2024-01-19T00:31:47.134Z,92491.19
2024-01-19T00:34:18.161Z,92498.88
2024-01-19T00:36:46.201Z,92496.81
2024-01-19T00:39:16.106Z,92496.28
2024-01-19T00:41:44.234Z,92501.59
2024-01-19T00:44:12.271Z,92492.59
2024-01-19T00:46:40.390Z,92482.25
2024-01-19T00:49:08.335Z,92487.03
2024-01-19T00:51:36.550Z,92475.31
2024-01-19T00:54:05.357Z,92479.03
2024-01-19T00:56:33.594Z,92488.00
2024-01-19T00:59:01.815Z,92489.06
2024-01-19T01:01:29.865Z,92482.19
2024-01-19T01:03:59.859Z,92495.19
2024-01-19T01:06:30.349Z,92497.97
2024-01-19T01:08:59.909Z,92506.00
2024-01-19T01:11:29.036Z,92493.53
2024-01-19T01:13:57.201Z,92492.19
2024-01-19T01:16:27.794Z,92495.91
2024-01-19T01:18:56.200Z,92492.06
2024-01-19T01:21:24.289Z,92502.38
2024-01-19T01:23:52.492Z,92498.41
2024-01-19T01:26:20.735Z,92486.75
2024-01-19T01:28:49.072Z,92488.63
2024-01-19T01:31:17.042Z,92497.84
2024-01-19T01:33:45.464Z,92500.25
2024-01-19T01:36:13.618Z,92499.47
2024-01-19T01:38:41.710Z,92492.16
2024-01-19T01:41:09.939Z,92502.03
2024-01-19T01:43:37.999Z,92497.84
2024-01-19T01:46:06.157Z,92492.38
2024-01-19T01:48:34.441Z,92482.00
2024-01-19T01:51:03.044Z,92484.88
2024-01-19T01:53:31.437Z,92489.66
2024-01-19T01:56:00.066Z,92498.50
2024-01-19T01:58:28.069Z,92490.94
2024-01-19T02:00:56.228Z,92493.47
2024-01-19T02:03:24.500Z,92493.72
2024-01-19T02:05:52.766Z,92499.00
2024-01-19T02:08:21.121Z,92489.97
2024-01-19T02:10:49.263Z,92497.72
2024-01-19T02:13:18.265Z,92486.13
2024-01-19T02:15:46.331Z,92492.75
2024-01-19T02:18:15.387Z,92498.13
2024-01-19T02:20:43.797Z,92488.94
2024-01-19T02:23:15.328Z,92497.16
2024-01-19T02:25:43.563Z,92498.59
2024-01-19T02:28:12.151Z,92500.00
2024-01-19T02:30:41.882Z,92490.78
2024-01-19T02:33:11.201Z,92493.38
2024-01-19T02:35:39.402Z,92496.44
2024-01-19T02:38:07.374Z,92502.06
2024-01-19T02:40:36.069Z,92501.97
2024-01-19T02:43:04.154Z,92517.94
2024-01-19T02:45:32.200Z,92514.22
2024-01-19T02:48:00.283Z,92504.16
2024-01-19T02:50:28.815Z,92517.38
2024-01-19T02:52:56.837Z,92524.91
2024-01-19T02:55:24.889Z,92523.09
2024-01-19T02:57:52.892Z,92523.91
2024-01-19T03:02:34.519Z,92526.09
2024-01-19T03:05:03.062Z,92539.28
2024-01-19T03:07:31.477Z,92535.09
2024-01-19T03:09:59.500Z,92533.53
2024-01-19T03:12:27.618Z,92543.84
2024-01-19T03:14:55.698Z,92532.78
2024-01-19T03:17:23.869Z,92543.06
2024-01-19T03:19:51.926Z,92530.41
2024-01-19T03:22:20.034Z,92538.47
2024-01-19T03:24:47.992Z,92534.78
2024-01-19T03:27:16.111Z,92536.38
2024-01-19T03:29:45.606Z,92529.44
2024-01-19T03:32:13.581Z,92542.50
2024-01-19T03:34:42.445Z,92532.59
2024-01-19T03:37:10.527Z,92535.28
2024-01-19T03:39:38.710Z,92518.84
2024-01-19T03:42:07.000Z,92526.75
2024-01-19T03:44:35.262Z,92532.56
2024-01-19T03:47:03.712Z,92526.28
2024-01-19T03:49:31.674Z,92540.94
2024-01-19T03:52:00.912Z,92543.41
2024-01-19T03:54:29.174Z,92535.25
2024-01-19T03:56:59.680Z,92541.31
2024-01-19T03:59:28.559Z,92546.94
2024-01-19T04:01:57.237Z,92544.91
2024-01-19T04:04:26.561Z,92546.38
2024-01-19T04:06:55.130Z,92557.88
2024-01-19T04:09:23.443Z,92562.97
2024-01-19T04:11:51.868Z,92573.25
2024-01-19T04:14:20.615Z,92567.75
2024-01-19T04:16:48.770Z,92564.34
2024-01-19T04:19:17.029Z,92569.56
2024-01-19T04:21:45.256Z,92564.81
2024-01-19T04:24:13.460Z,92568.28
2024-01-19T04:26:41.537Z,92563.50
2024-01-19T04:29:11.359Z,92563.72
2024-01-19T04:31:39.562Z,92576.19
2024-01-19T04:34:08.097Z,92577.31
2024-01-19T04:36:36.148Z,92582.16
2024-01-19T04:39:04.932Z,92582.44
2024-01-19T04:41:34.475Z,92588.06
2024-01-19T04:44:02.636Z,92580.78
2024-01-19T04:46:30.818Z,92590.94
2024-01-19T04:48:58.853Z,92586.94
2024-01-19T04:51:27.157Z,92584.03
2024-01-19T04:53:55.297Z,92583.69
2024-01-19T04:56:23.595Z,92584.50
2024-01-19T04:58:51.676Z,92573.34
2024-01-19T05:01:19.746Z,92577.00
2024-01-19T05:03:47.762Z,92577.50
2024-01-19T05:06:15.980Z,92579.81
2024-01-19T05:08:44.069Z,92579.50
2024-01-19T05:11:15.860Z,92591.22
2024-01-19T05:13:44.749Z,92574.25
2024-01-19T05:16:12.754Z,92589.38
2024-01-19T05:18:42.124Z,92594.16
2024-01-19T05:21:10.552Z,92583.47
2024-01-19T05:23:38.731Z,92598.47
2024-01-19T05:26:06.991Z,92597.97
2024-01-19T05:28:37.859Z,92594.97
2024-01-19T05:31:06.072Z,92605.13
2024-01-19T05:33:38.699Z,92593.13
2024-01-19T05:36:08.612Z,92595.03
2024-01-19T05:38:36.697Z,92600.19
2024-01-19T05:41:04.925Z,92595.63
2024-01-19T05:43:34.008Z,92599.72
2024-01-19T05:46:02.183Z,92603.03
2024-01-19T05:48:30.392Z,92591.34
2024-01-19T05:50:58.690Z,92607.16
2024-01-19T05:53:26.870Z,92617.81
2024-01-19T05:55:54.965Z,92616.06
2024-01-19T05:58:23.299Z,92616.81
2024-01-19T06:00:56.080Z,92609.31
2024-01-19T06:03:24.211Z,92605.13
2024-01-19T06:05:53.695Z,92619.66
2024-01-19T06:08:22.075Z,92624.84
2024-01-19T06:10:50.069Z,92619.00
2024-01-19T06:13:18.329Z,92611.13
2024-01-19T06:15:46.304Z,92619.97
2024-01-19T06:18:14.497Z,92620.53
2024-01-19T06:20:43.557Z,92621.41
2024-01-19T06:23:13.805Z,92611.94
2024-01-19T06:25:42.474Z,92620.66
2024-01-19T06:28:12.352Z,92606.44
2024-01-19T06:30:40.705Z,92601.56
2024-01-19T06:33:08.894Z,92611.22
2024-01-19T06:35:37.470Z,92620.34
2024-01-19T06:38:08.731Z,92624.13
2024-01-19T06:40:36.821Z,92630.38
2024-01-19T06:43:04.863Z,92643.50
2024-01-19T06:45:32.925Z,92640.88
2024-01-19T06:48:01.139Z,92634.69
2024-01-19T06:50:29.449Z,92635.25
2024-01-19T06:53:03.305Z,92638.81
2024-01-19T06:55:31.277Z,92646.75
2024-01-19T06:57:59.369Z,92650.97
2024-01-19T07:00:27.579Z,92655.50
2024-01-19T07:02:56.281Z,92641.09
2024-01-19T07:05:24.540Z,92629.22
2024-01-19T07:07:52.761Z,92643.16
2024-01-19T07:10:21.831Z,92634.78
2024-01-19T07:12:49.935Z,92630.59
2024-01-19T07:15:18.136Z,92618.44
2024-01-19T07:17:46.128Z,92630.13
2024-01-19T07:20:14.326Z,92625.91
2024-01-19T07:22:42.426Z,92629.16
2024-01-19T07:25:11.277Z,92628.38
2024-01-19T07:27:39.238Z,92640.06
2024-01-19T07:30:07.664Z,92633.41
2024-01-19T07:32:50.766Z,92650.72
2024-01-19T07:35:24.122Z,92648.38
2024-01-19T07:37:52.176Z,92647.03
2024-01-19T07:40:20.283Z,92645.44
2024-01-19T07:42:48.249Z,92640.34
2024-01-19T07:45:16.616Z,92643.00
2024-01-19T07:47:44.733Z,92634.66
2024-01-19T07:50:13.345Z,92640.09
2024-01-19T07:52:41.660Z,92640.34
2024-01-19T07:55:10.569Z,92634.75
2024-01-19T07:57:38.666Z,92646.72
2024-01-19T08:00:07.722Z,92638.06
2024-01-19T08:02:36.178Z,92646.53
2024-01-19T08:05:04.512Z,92648.59
2024-01-19T08:07:32.612Z,92648.22
2024-01-19T08:10:00.875Z,92637.63
2024-01-19T08:12:29.399Z,92644.41
2024-01-19T08:14:59.434Z,92657.00
2024-01-19T08:17:27.761Z,92651.78
2024-01-19T08:19:56.133Z,92649.63
2024-01-19T08:22:24.540Z,92661.16
2024-01-19T08:24:52.630Z,92680.56
2024-01-19T08:27:20.682Z,92684.53
2024-01-19T08:29:48.914Z,92670.28
2024-01-19T08:32:17.123Z,92679.56
2024-01-19T08:34:45.271Z,92686.06
2024-01-19T08:37:13.384Z,92679.44
2024-01-19T08:39:41.574Z,92667.16
2024-01-19T08:42:09.797Z,92657.72
2024-01-19T08:44:37.723Z,92659.28
2024-01-19T08:47:05.953Z,92660.41
2024-01-19T08:49:33.963Z,92655.72
2024-01-19T08:52:02.174Z,92665.94
2024-01-19T08:54:30.202Z,92671.00
2024-01-19T08:56:59.397Z,92686.00
2024-01-19T08:59:28.011Z,92684.22
2024-01-19T09:01:57.755Z,92681.19
2024-01-19T09:04:26.158Z,92679.47
2024-01-19T09:06:59.246Z,92677.41
2024-01-19T09:09:28.131Z,92672.84
2024-01-19T09:11:58.229Z,92675.38
2024-01-19T09:14:28.186Z,92672.09
2024-01-19T09:16:56.409Z,92668.03
2024-01-19T09:19:24.451Z,92655.00
2024-01-19T09:21:52.537Z,92663.59
2024-01-19T09:24:21.603Z,92681.16
2024-01-19T09:26:49.847Z,92677.22
2024-01-19T09:29:17.935Z,92663.19
2024-01-19T09:31:47.965Z,92654.75
2024-01-19T09:34:16.796Z,92654.91
2024-01-19T09:36:44.736Z,92655.56
2024-01-19T09:39:12.764Z,92651.88
2024-01-19T09:41:47.780Z,92639.00
2024-01-19T09:44:19.465Z,92654.25
2024-01-19T09:46:53.302Z,92650.56
2024-01-19T09:49:45.326Z,92656.50
2024-01-19T09:52:32.056Z,92656.78
2024-01-19T09:55:00.988Z,92651.16
2024-01-19T09:57:32.363Z,92651.56
2024-01-19T10:00:00.679Z,92638.28
2024-01-19T10:02:29.781Z,92642.38
2024-01-19T10:05:00.495Z,92648.56
2024-01-19T10:07:30.189Z,92643.75
2024-01-19T10:09:58.546Z,92648.84
2024-01-19T10:12:27.829Z,92649.63
2024-01-19T10:14:56.104Z,92631.81
2024-01-19T10:17:24.590Z,92634.34
2024-01-19T10:19:53.591Z,92625.19
2024-01-19T10:22:28.453Z,92629.56
2024-01-19T10:25:16.430Z,92617.69
2024-01-19T10:27:50.226Z,92608.44
2024-01-19T10:30:21.308Z,92620.66
2024-01-19T10:32:51.715Z,92603.50
2024-01-19T10:35:22.295Z,92603.13
2024-01-19T10:37:51.511Z,92601.44
2024-01-19T10:40:24.500Z,92602.41
2024-01-19T10:42:58.272Z,92594.03
2024-01-19T10:45:33.624Z,92597.41
2024-01-19T10:48:04.939Z,92582.78
2024-01-19T10:50:33.457Z,92580.91
2024-01-19T10:53:02.680Z,92575.19
2024-01-19T10:55:32.552Z,92565.38
2024-01-19T10:58:07.738Z,92551.44
2024-01-19T11:00:40.047Z,92547.47
2024-01-19T11:03:08.317Z,92550.94
2024-01-19T11:05:36.438Z,92560.00
2024-01-19T11:08:05.386Z,92559.06
2024-01-19T11:10:33.976Z,92561.09
2024-01-19T11:13:03.618Z,92552.50
2024-01-19T11:15:47.646Z,92538.47
2024-01-19T11:18:16.720Z,92549.47
2024-01-19T11:20:46.188Z,92538.69
2024-01-19T11:23:15.914Z,92549.03
2024-01-19T11:26:22.129Z,92550.75
2024-01-19T11:29:16.780Z,92553.44
2024-01-19T11:31:49.795Z,92544.50
2024-01-19T11:34:52.663Z,92546.19
2024-01-19T11:37:46.953Z,92554.84
2024-01-19T11:40:26.944Z,92548.25
2024-01-19T11:42:55.017Z,92549.63
2024-01-19T11:45:44.325Z,92547.81
2024-01-19T11:48:42.983Z,92555.75
2024-01-19T11:51:33.907Z,92554.22
2024-01-19T11:54:04.674Z,92558.50
2024-01-19T11:56:33.382Z,92564.97
2024-01-19T11:59:01.504Z,92562.66
2024-01-19T12:01:29.522Z,92570.31
2024-01-19T12:03:57.733Z,92578.03
2024-01-19T12:06:26.108Z,92564.38
2024-01-19T12:09:08.792Z,92580.09
2024-01-19T12:11:37.388Z,92589.81
2024-01-19T12:14:11.060Z,92588.88
2024-01-19T12:16:39.924Z,92593.59
2024-01-19T12:19:07.950Z,92589.47
2024-01-19T12:21:36.090Z,92589.94
2024-01-19T12:24:04.690Z,92594.78
2024-01-19T12:26:32.749Z,92599.53
2024-01-19T12:29:00.881Z,92595.13
2024-01-19T12:31:38.499Z,92588.56
2024-01-19T12:34:17.218Z,92604.25
2024-01-19T12:36:45.572Z,92603.44
2024-01-19T12:39:15.809Z,92605.81
2024-01-19T12:41:44.715Z,92613.72
2024-01-19T12:44:15.077Z,92615.78
2024-01-19T12:46:51.380Z,92616.41
2024-01-19T12:49:19.864Z,92621.75
2024-01-19T12:51:48.077Z,92620.81
2024-01-19T12:54:25.077Z,92625.47
2024-01-19T12:56:53.233Z,92618.69
2024-01-19T12:59:23.639Z,92612.81
2024-01-19T13:01:52.718Z,92614.72
2024-01-19T13:04:21.364Z,92600.50
2024-01-19T13:06:51.176Z,92605.56
2024-01-19T13:09:19.829Z,92601.50
2024-01-19T13:11:48.043Z,92614.09
2024-01-19T13:14:16.344Z,92624.78
2024-01-19T13:16:58.235Z,92613.31
2024-01-19T13:19:26.406Z,92613.03
2024-01-19T13:21:57.019Z,92620.31
2024-01-19T13:24:27.148Z,92627.94
2024-01-19T13:27:04.522Z,92629.41
2024-01-19T13:29:33.086Z,92632.81
2024-01-19T13:32:01.753Z,92629.34
2024-01-19T13:34:30.372Z,92636.00
2024-01-19T13:36:59.076Z,92647.41
2024-01-19T13:39:28.189Z,92649.72
2024-01-19T13:41:57.125Z,92644.53
2024-01-19T13:44:26.094Z,92656.63
2024-01-19T13:46:54.586Z,92664.38
2024-01-19T13:49:23.163Z,92657.31
2024-01-19T13:51:51.529Z,92648.06
2024-01-19T13:54:19.890Z,92650.34
2024-01-19T13:56:47.929Z,92650.63
2024-01-19T14:02:10.216Z,92648.59
2024-01-19T14:04:42.102Z,92662.63
2024-01-19T14:07:11.441Z,92649.78
2024-01-19T14:09:39.795Z,92661.00
2024-01-19T14:12:09.250Z,92653.84
2024-01-19T14:14:38.927Z,92650.97
2024-01-19T14:17:07.491Z,92660.22
2024-01-19T14:19:36.461Z,92668.66
2024-01-19T14:22:05.286Z,92678.94
2024-01-19T14:24:34.144Z,92682.84
2024-01-19T14:27:03.737Z,92694.47
2024-01-19T14:29:32.954Z,92684.75
2024-01-19T14:32:02.374Z,92680.78
2024-01-19T14:34:36.611Z,92688.41
2024-01-19T14:37:12.713Z,92687.34
2024-01-19T14:39:41.807Z,92700.75
2024-01-19T14:42:10.580Z,92704.94
2024-01-19T14:44:39.338Z,92695.97
2024-01-19T14:47:09.110Z,92690.59
2024-01-19T14:49:39.811Z,92709.66
2024-01-19T14:52:09.199Z,92700.66
2024-01-19T14:54:38.791Z,92692.97
2024-01-19T14:57:07.606Z,92691.97
2024-01-19T14:59:36.290Z,92704.28
2024-01-19T15:02:05.254Z,92706.91
2024-01-19T15:04:33.906Z,92713.94
2024-01-19T15:07:02.318Z,92712.13
2024-01-19T15:09:31.410Z,92696.16
2024-01-19T15:11:59.805Z,92718.00
2024-01-19T15:14:28.505Z,92710.91
2024-01-19T15:16:57.134Z,92698.31
2024-01-19T15:19:25.949Z,92688.56
2024-01-19T15:21:56.768Z,92685.69
2024-01-19T15:24:25.408Z,92695.00
2024-01-19T15:26:54.155Z,92699.41
2024-01-19T15:29:23.073Z,92703.97
2024-01-19T15:31:51.468Z,92704.72
2024-01-19T15:34:20.198Z,92706.88
2024-01-19T15:36:48.586Z,92724.75
2024-01-19T15:39:17.433Z,92731.63
2024-01-19T15:41:45.974Z,92727.78
2024-01-19T15:44:14.557Z,92726.69
2024-01-19T15:46:43.278Z,92723.59
2024-01-19T15:49:11.880Z,92716.84
2024-01-19T15:51:40.650Z,92723.81
2024-01-19T15:54:09.113Z,92723.56
2024-01-19T15:56:38.718Z,92722.81
2024-01-19T15:59:08.990Z,92723.69
2024-01-19T16:01:41.625Z,92735.47
2024-01-19T16:04:11.148Z,92730.91
2024-01-19T16:06:40.294Z,92738.03
2024-01-19T16:09:12.244Z,92726.19
2024-01-19T16:11:40.872Z,92728.88
2024-01-19T16:14:09.715Z,92736.34
2024-01-19T16:16:38.407Z,92732.38
2024-01-19T16:19:07.677Z,92742.81
2024-01-19T16:21:36.370Z,92717.78
2024-01-19T16:24:05.208Z,92731.47
2024-01-19T16:26:34.279Z,92741.13
2024-01-19T16:29:02.955Z,92728.47
2024-01-19T16:31:31.460Z,92755.97
2024-01-19T16:34:00.092Z,92756.50
2024-01-19T16:36:28.910Z,92753.03
2024-01-19T16:38:57.552Z,92749.19
2024-01-19T16:41:26.234Z,92743.44
2024-01-19T16:43:55.072Z,92771.69
2024-01-19T16:46:24.964Z,92780.06
2024-01-19T16:48:53.788Z,92745.31
2024-01-19T16:51:24.515Z,92762.50
2024-01-19T16:53:59.887Z,92764.91
2024-01-19T16:56:33.249Z,92764.59
2024-01-19T16:59:03.725Z,92761.66
2024-01-19T17:01:33.079Z,92760.25
2024-01-19T17:04:01.918Z,92763.59
2024-01-19T17:06:30.397Z,92768.09
2024-01-19T17:09:00.200Z,92763.53
2024-01-19T17:11:29.545Z,92767.75
2024-01-19T17:14:01.945Z,92774.66
2024-01-19T17:16:31.153Z,92762.09
2024-01-19T17:18:59.934Z,92766.59
2024-01-19T17:21:29.106Z,92770.09
2024-01-19T17:23:58.745Z,92764.63
2024-01-19T17:26:29.200Z,92752.31
2024-01-19T17:29:00.861Z,92749.31
2024-01-19T17:31:29.660Z,92751.13
2024-01-19T17:34:07.164Z,92761.53
2024-01-19T17:36:39.512Z,92761.81
2024-01-19T17:39:08.558Z,92766.94
2024-01-19T17:41:43.928Z,92762.16
2024-01-19T17:44:12.609Z,92768.38
2024-01-19T17:46:41.291Z,92779.84
2024-01-19T17:49:10.064Z,92784.06
2024-01-19T17:51:38.878Z,92774.97
2024-01-19T17:54:08.420Z,92777.13
2024-01-19T17:56:38.941Z,92790.78
2024-01-19T17:59:08.893Z,92779.03
2024-01-19T18:01:37.775Z,92775.31
2024-01-19T18:04:06.714Z,92780.41
2024-01-19T18:06:37.881Z,92783.09
2024-01-19T18:09:08.621Z,92773.75
2024-01-19T18:11:37.904Z,92778.56
2024-01-19T18:14:06.772Z,92778.31
2024-01-19T18:16:36.414Z,92783.38
2024-01-19T18:19:05.655Z,92777.78
2024-01-19T18:21:36.226Z,92782.59
2024-01-19T18:24:07.725Z,92780.47
2024-01-19T18:26:36.661Z,92785.81
2024-01-19T18:29:06.160Z,92783.03
2024-01-19T18:31:34.933Z,92776.31
2024-01-19T18:34:04.023Z,92799.50
2024-01-19T18:36:33.102Z,92802.44
2024-01-19T18:39:03.368Z,92816.06
2024-01-19T18:41:32.881Z,92806.47
2024-01-19T18:44:01.551Z,92815.78
2024-01-19T18:46:30.141Z,92818.69
2024-01-19T18:48:58.909Z,92817.31
2024-01-19T18:51:27.544Z,92827.44
2024-01-19T18:53:56.155Z,92845.59
2024-01-19T18:56:24.896Z,92859.44
2024-01-19T18:58:53.728Z,92863.97
2024-01-19T19:01:24.432Z,92871.47
2024-01-19T19:03:53.410Z,92879.25
2024-01-19T19:06:23.567Z,92880.03
2024-01-19T19:08:52.381Z,92879.50
2024-01-19T19:11:22.404Z,92890.72
2024-01-19T19:13:51.721Z,92900.06
2024-01-19T19:16:30.233Z,92903.78
2024-01-19T19:19:05.658Z,92905.31
2024-01-19T19:21:34.370Z,92910.31
2024-01-19T19:24:06.025Z,92925.31
2024-01-19T19:26:34.788Z,92941.94
2024-01-19T19:29:07.629Z,92956.09
2024-01-19T19:31:36.634Z,92957.94
2024-01-19T19:34:08.376Z,92966.88
2024-01-19T19:36:37.266Z,92960.94
2024-01-19T19:39:05.941Z,92969.16
2024-01-19T19:41:38.287Z,92979.78
2024-01-19T19:44:06.772Z,92973.47
2024-01-19T19:46:35.358Z,92973.34
2024-01-19T19:49:06.758Z,92984.25
2024-01-19T19:51:38.665Z,92992.59
2024-01-19T19:54:08.408Z,92986.16
2024-01-19T19:56:39.841Z,92982.41
2024-01-19T19:59:09.171Z,92991.91
2024-01-19T20:01:37.916Z,92994.50
2024-01-19T20:04:07.064Z,93003.22
2024-01-19T20:06:35.583Z,93007.09
2024-01-19T20:09:04.340Z,93008.56
2024-01-19T20:11:35.282Z,93026.78
2024-01-19T20:14:05.155Z,93030.47
2024-01-19T20:16:34.035Z,93032.88
2024-01-19T20:19:08.982Z,93045.13
2024-01-19T20:21:39.056Z,93042.34
2024-01-19T20:24:08.236Z,93050.78
2024-01-19T20:26:37.307Z,93055.75
2024-01-19T20:29:06.482Z,93073.00
2024-01-19T20:31:35.113Z,93068.91
2024-01-19T20:34:06.917Z,93090.91
2024-01-19T20:36:35.830Z,93090.34
2024-01-19T20:39:05.216Z,93079.06
2024-01-19T20:41:37.196Z,93086.81
2024-01-19T20:44:08.131Z,93105.09
2024-01-19T20:46:36.780Z,93095.00
2024-01-19T20:49:05.543Z,93082.50
2024-01-19T20:51:36.782Z,93086.28
2024-01-19T20:54:06.426Z,93082.28
2024-01-19T20:56:35.085Z,93083.19
2024-01-19T20:59:04.047Z,93081.00
2024-01-19T21:01:32.845Z,93095.38
2024-01-19T21:04:01.773Z,93093.22
2024-01-19T21:06:30.788Z,93101.84
2024-01-19T21:08:59.477Z,93094.47
2024-01-19T21:11:28.582Z,93092.63
2024-01-19T21:13:58.297Z,93092.63
2024-01-19T21:16:27.883Z,93095.63
2024-01-19T21:18:57.202Z,93101.13
2024-01-19T21:21:26.255Z,93107.25
2024-01-19T21:23:55.445Z,93107.00
2024-01-19T21:26:25.612Z,93098.72
2024-01-19T21:28:54.461Z,93092.97
2024-01-19T21:31:23.240Z,93106.31
2024-01-19T21:33:51.982Z,93105.72
2024-01-19T21:36:20.879Z,93113.66
2024-01-19T21:38:52.252Z,93114.38
2024-01-19T21:41:21.845Z,93121.72
2024-01-19T21:43:51.332Z,93112.19
2024-01-19T21:46:20.308Z,93115.84
2024-01-19T21:48:49.702Z,93119.97
2024-01-19T21:51:18.823Z,93123.78
2024-01-19T21:53:50.611Z,93111.78
2024-01-19T21:56:20.136Z,93129.75
2024-01-19T21:58:48.947Z,93117.44
2024-01-19T22:01:21.189Z,93133.63
2024-01-19T22:03:50.843Z,93117.06
2024-01-19T22:06:20.017Z,93117.53
2024-01-19T22:08:48.728Z,93121.22
2024-01-19T22:11:17.716Z,93113.91
2024-01-19T22:13:46.828Z,93112.25
2024-01-19T22:16:15.817Z,93113.59
2024-01-19T22:18:45.185Z,93130.06
2024-01-19T22:21:13.523Z,93151.66
2024-01-19T22:23:41.678Z,93145.88
2024-01-19T22:26:10.158Z,93142.34
2024-01-19T22:28:38.566Z,93138.09
2024-01-19T22:31:07.838Z,93137.31
2024-01-19T22:33:37.199Z,93136.13
2024-01-19T22:36:14.998Z,93144.91
2024-01-19T22:38:48.237Z,93153.34
2024-01-19T22:41:16.532Z,93134.97
2024-01-19T22:43:45.473Z,93146.56
2024-01-19T22:46:13.659Z,93163.44
2024-01-19T22:48:42.720Z,93155.66
2024-01-19T22:51:13.818Z,93154.34
2024-01-19T22:53:42.798Z,93149.66
2024-01-19T22:56:11.749Z,93159.66
2024-01-19T22:58:41.945Z,93153.41
2024-01-19T23:01:11.657Z,93165.47
2024-01-19T23:03:40.131Z,93164.59
2024-01-19T23:06:08.753Z,93174.91
2024-01-19T23:08:36.729Z,93165.63
2024-01-19T23:11:05.111Z,93174.69
2024-01-19T23:13:33.301Z,93174.38
2024-01-19T23:16:02.392Z,93156.97
2024-01-19T23:18:31.306Z,93177.66
2024-01-19T23:20:59.558Z,93173.78
2024-01-19T23:23:27.742Z,93176.88
2024-01-19T23:25:56.074Z,93179.53
2024-01-19T23:28:24.211Z,93173.91
2024-01-19T23:30:53.123Z,93177.16
2024-01-19T23:33:23.174Z,93171.56
2024-01-19T23:35:51.274Z,93180.84
2024-01-19T23:38:19.587Z,93190.13
2024-01-19T23:40:47.775Z,93188.91
2024-01-19T23:43:16.251Z,93197.63
2024-01-19T23:45:44.525Z,93197.44
2024-01-19T23:48:12.581Z,93201.41
2024-01-19T23:50:40.981Z,93197.06
2024-01-19T23:53:09.167Z,93210.69
2024-01-19T23:55:37.403Z,93211.00
2024-01-19T23:58:05.397Z,93199.25
